Crescent, Oklahoma
Current Conditions -  °F | °C
As of 6:53 AM on Wednesday 22 Oct 2014 (Local Time) from KGOK Reporting Station
Clear Clear  
Wind Chill: 59°   Ceiling: Unl
Heat Index: 59°   Visibility: 10mi
Dew Point: 57°   Wind: 5mph
Humidity: 93%   Direction: 180°S
Pressure: 30.11"   Gusts: NA
Location:  35.95°N, 97.59°W
Report Text: KGOK 221153Z AUTO 18004KT 10SM CLR 15/14 A3011 RMK AO2 SLP191 T01500139 10183 20150 53014
Loading
Personal Weather Stations






























Interactive Weather Map
Tropical Storm Tracking
New forecast layout! Learn more

10-Day Weather Forecast

Advertisements
Track Severe Weather on mobile